Terminal Aerodrome Forecast
Issued by NWS

Home | Current Version | Previous Version | Text Only | Print | Product List | Glossary On
Versions: 1 2 3 4 5 6 7 8 9 10 11 12 13 14 15 16 17 18 19 20 21 22 23 24 25 26 27 28 29 30
000
FTUS43 KDMX 201931 AAA
TAFFOD
TAF AMD
KFOD 201931Z 2020/2118 19006KT P6SM VCSH SCT035 BKN070
      TEMPO 2020/2022 VRB10G20KT 3SM TSRA BR BKN020CB
     FM210100 13008KT P6SM SCT035 OVC070
      TEMPO 2107/2110 2SM TSRA SCT007 OVC030CB
     FM211100 18008KT 5SM SHRA BR OVC025
     FM211600 21009KT P6SM BKN080=

USA.gov is the U.S. government's official web portal to all federal, state and local government web resources and services.